sensor_id;sensor_type;location;lat;lon;timestamp;P1;durP1;ratioP1;P2;durP2;ratioP2
38609;SDS011;24367;51.640;9.566;2022-12-18T00:02:12;7.70;;;7.00;;
38609;SDS011;24367;51.640;9.566;2022-12-18T00:04:39;10.77;;;7.20;;
38609;SDS011;24367;51.640;9.566;2022-12-18T00:07:05;8.52;;;7.30;;
38609;SDS011;24367;51.640;9.566;2022-12-18T00:09:32;8.68;;;7.88;;
38609;SDS011;24367;51.640;9.566;2022-12-18T00:12:00;8.18;;;7.38;;
38609;SDS011;24367;51.640;9.566;2022-12-18T00:14:27;8.35;;;7.40;;
38609;SDS011;24367;51.640;9.566;2022-12-18T00:16:53;8.95;;;6.90;;
38609;SDS011;24367;51.640;9.566;2022-12-18T00:19:20;8.23;;;7.45;;
38609;SDS011;24367;51.640;9.566;2022-12-18T00:21:47;7.72;;;6.93;;
38609;SDS011;24367;51.640;9.566;2022-12-18T00:24:13;9.10;;;7.30;;
38609;SDS011;24367;51.640;9.566;2022-12-18T00:26:40;8.38;;;7.57;;
38609;SDS011;24367;51.640;9.566;2022-12-18T00:29:10;8.50;;;7.70;;
38609;SDS011;24367;51.640;9.566;2022-12-18T00:31:39;8.65;;;7.75;;
38609;SDS011;24367;51.640;9.566;2022-12-18T00:34:05;7.57;;;6.88;;
38609;SDS011;24367;51.640;9.566;2022-12-18T00:36:33;7.90;;;7.07;;
38609;SDS011;24367;51.640;9.566;2022-12-18T00:39:00;8.57;;;7.47;;
38609;SDS011;24367;51.640;9.566;2022-12-18T00:41:28;8.68;;;7.28;;
38609;SDS011;24367;51.640;9.566;2022-12-18T00:44:15;7.95;;;7.15;;
38609;SDS011;24367;51.640;9.566;2022-12-18T00:46:44;8.10;;;7.30;;
38609;SDS011;24367;51.640;9.566;2022-12-18T00:49:11;7.30;;;6.63;;
38609;SDS011;24367;51.640;9.566;2022-12-18T00:51:38;7.53;;;6.60;;
38609;SDS011;24367;51.640;9.566;2022-12-18T00:54:04;7.68;;;6.88;;
38609;SDS011;24367;51.640;9.566;2022-12-18T00:56:31;8.20;;;7.40;;
38609;SDS011;24367;51.640;9.566;2022-12-18T00:58:57;7.90;;;7.15;;
38609;SDS011;24367;51.640;9.566;2022-12-18T01:01:25;8.10;;;7.30;;
38609;SDS011;24367;51.640;9.566;2022-12-18T01:03:52;7.75;;;7.05;;
38609;SDS011;24367;51.640;9.566;2022-12-18T01:06:19;7.40;;;6.70;;
38609;SDS011;24367;51.640;9.566;2022-12-18T01:08:45;7.95;;;7.15;;
38609;SDS011;24367;51.640;9.566;2022-12-18T01:11:13;7.95;;;7.15;;
38609;SDS011;24367;51.640;9.566;2022-12-18T01:13:41;7.93;;;7.18;;
38609;SDS011;24367;51.640;9.566;2022-12-18T01:16:08;8.20;;;7.07;;
38609;SDS011;24367;51.640;9.566;2022-12-18T01:18:36;9.00;;;7.38;;
38609;SDS011;24367;51.640;9.566;2022-12-18T01:21:05;7.63;;;6.93;;
38609;SDS011;24367;51.640;9.566;2022-12-18T01:23:32;7.40;;;6.70;;
38609;SDS011;24367;51.640;9.566;2022-12-18T01:26:03;7.63;;;6.50;;
38609;SDS011;24367;51.640;9.566;2022-12-18T01:28:30;7.43;;;6.72;;
38609;SDS011;24367;51.640;9.566;2022-12-18T01:30:57;7.75;;;7.00;;
38609;SDS011;24367;51.640;9.566;2022-12-18T01:33:24;6.85;;;6.15;;
38609;SDS011;24367;51.640;9.566;2022-12-18T01:35:51;7.63;;;6.80;;
38609;SDS011;24367;51.640;9.566;2022-12-18T01:38:19;7.57;;;6.88;;
38609;SDS011;24367;51.640;9.566;2022-12-18T01:40:46;6.97;;;6.28;;
38609;SDS011;24367;51.640;9.566;2022-12-18T01:43:13;7.90;;;7.10;;
38609;SDS011;24367;51.640;9.566;2022-12-18T01:45:39;6.78;;;6.15;;
38609;SDS011;24367;51.640;9.566;2022-12-18T01:48:06;7.10;;;6.40;;
38609;SDS011;24367;51.640;9.566;2022-12-18T01:50:35;7.20;;;6.50;;
38609;SDS011;24367;51.640;9.566;2022-12-18T01:53:05;7.18;;;6.47;;
38609;SDS011;24367;51.640;9.566;2022-12-18T01:55:35;7.13;;;5.95;;
38609;SDS011;24367;51.640;9.566;2022-12-18T01:58:04;7.30;;;6.60;;
38609;SDS011;24367;51.640;9.566;2022-12-18T02:00:31;7.43;;;6.63;;
38609;SDS011;24367;51.640;9.566;2022-12-18T02:02:57;7.32;;;6.63;;
38609;SDS011;24367;51.640;9.566;2022-12-18T02:05:26;7.05;;;6.32;;
38609;SDS011;24367;51.640;9.566;2022-12-18T02:08:03;6.85;;;6.15;;
38609;SDS011;24367;51.640;9.566;2022-12-18T02:10:37;7.13;;;6.25;;
38609;SDS011;24367;51.640;9.566;2022-12-18T02:13:12;6.97;;;6.28;;
38609;SDS011;24367;51.640;9.566;2022-12-18T02:15:42;7.60;;;6.80;;
38609;SDS011;24367;51.640;9.566;2022-12-18T02:18:13;6.90;;;6.20;;
38609;SDS011;24367;51.640;9.566;2022-12-18T02:20:44;7.68;;;6.88;;
38609;SDS011;24367;51.640;9.566;2022-12-18T02:23:18;7.10;;;6.40;;
38609;SDS011;24367;51.640;9.566;2022-12-18T02:25:54;6.57;;;5.97;;
38609;SDS011;24367;51.640;9.566;2022-12-18T02:28:32;6.97;;;6.28;;
38609;SDS011;24367;51.640;9.566;2022-12-18T02:31:04;7.32;;;6.63;;
38609;SDS011;24367;51.640;9.566;2022-12-18T02:33:33;7.13;;;6.43;;
38609;SDS011;24367;51.640;9.566;2022-12-18T02:36:01;7.00;;;6.30;;
38609;SDS011;24367;51.640;9.566;2022-12-18T02:38:30;7.07;;;6.38;;
38609;SDS011;24367;51.640;9.566;2022-12-18T02:41:05;7.68;;;6.63;;
38609;SDS011;24367;51.640;9.566;2022-12-18T02:43:32;7.43;;;6.72;;
38609;SDS011;24367;51.640;9.566;2022-12-18T02:46:00;7.22;;;6.53;;
38609;SDS011;24367;51.640;9.566;2022-12-18T02:48:43;7.65;;;6.90;;
38609;SDS011;24367;51.640;9.566;2022-12-18T02:51:14;6.80;;;6.10;;
38609;SDS011;24367;51.640;9.566;2022-12-18T02:53:48;6.32;;;5.72;;
38609;SDS011;24367;51.640;9.566;2022-12-18T02:56:21;7.07;;;6.38;;
38609;SDS011;24367;51.640;9.566;2022-12-18T02:58:53;7.38;;;6.68;;
38609;SDS011;24367;51.640;9.566;2022-12-18T03:01:38;6.03;;;5.43;;
38609;SDS011;24367;51.640;9.566;2022-12-18T03:04:11;7.28;;;6.57;;
38609;SDS011;24367;51.640;9.566;2022-12-18T03:06:39;6.78;;;6.18;;
38609;SDS011;24367;51.640;9.566;2022-12-18T03:09:09;7.32;;;6.43;;
38609;SDS011;24367;51.640;9.566;2022-12-18T03:11:39;6.90;;;6.22;;
38609;SDS011;24367;51.640;9.566;2022-12-18T03:14:25;7.13;;;6.43;;
38609;SDS011;24367;51.640;9.566;2022-12-18T03:16:56;6.82;;;6.15;;
38609;SDS011;24367;51.640;9.566;2022-12-18T03:19:27;7.03;;;6.20;;
38609;SDS011;24367;51.640;9.566;2022-12-18T03:21:57;6.68;;;6.07;;
38609;SDS011;24367;51.640;9.566;2022-12-18T03:24:25;6.38;;;5.78;;
38609;SDS011;24367;51.640;9.566;2022-12-18T03:26:54;6.47;;;5.85;;
38609;SDS011;24367;51.640;9.566;2022-12-18T03:29:24;7.32;;;6.63;;
38609;SDS011;24367;51.640;9.566;2022-12-18T03:31:54;6.88;;;6.28;;
38609;SDS011;24367;51.640;9.566;2022-12-18T03:34:26;7.22;;;6.43;;
38609;SDS011;24367;51.640;9.566;2022-12-18T03:36:57;6.40;;;5.80;;
38609;SDS011;24367;51.640;9.566;2022-12-18T03:39:24;6.57;;;5.80;;
38609;SDS011;24367;51.640;9.566;2022-12-18T03:41:59;6.50;;;5.90;;
38609;SDS011;24367;51.640;9.566;2022-12-18T03:44:35;7.32;;;6.57;;
38609;SDS011;24367;51.640;9.566;2022-12-18T03:47:06;6.80;;;6.13;;
38609;SDS011;24367;51.640;9.566;2022-12-18T03:49:35;6.93;;;6.22;;
38609;SDS011;24367;51.640;9.566;2022-12-18T03:52:06;6.68;;;6.07;;
38609;SDS011;24367;51.640;9.566;2022-12-18T03:54:37;6.43;;;5.82;;
38609;SDS011;24367;51.640;9.566;2022-12-18T03:57:14;6.43;;;5.82;;
38609;SDS011;24367;51.640;9.566;2022-12-18T03:59:43;6.25;;;5.65;;
38609;SDS011;24367;51.640;9.566;2022-12-18T04:02:12;6.88;;;6.28;;
38609;SDS011;24367;51.640;9.566;2022-12-18T04:04:40;6.65;;;6.05;;
38609;SDS011;24367;51.640;9.566;2022-12-18T04:07:09;6.47;;;5.88;;
38609;SDS011;24367;51.640;9.566;2022-12-18T04:09:37;6.22;;;5.63;;
38609;SDS011;24367;51.640;9.566;2022-12-18T04:12:05;6.53;;;5.93;;
38609;SDS011;24367;51.640;9.566;2022-12-18T04:14:33;6.40;;;5.80;;
38609;SDS011;24367;51.640;9.566;2022-12-18T04:17:02;5.97;;;5.38;;
38609;SDS011;24367;51.640;9.566;2022-12-18T04:19:31;6.53;;;5.90;;
38609;SDS011;24367;51.640;9.566;2022-12-18T04:21:58;6.88;;;6.18;;
38609;SDS011;24367;51.640;9.566;2022-12-18T04:24:26;6.90;;;6.20;;
38609;SDS011;24367;51.640;9.566;2022-12-18T04:27:03;6.88;;;6.18;;
38609;SDS011;24367;51.640;9.566;2022-12-18T04:29:34;6.47;;;5.47;;
38609;SDS011;24367;51.640;9.566;2022-12-18T04:32:01;6.85;;;6.15;;
38609;SDS011;24367;51.640;9.566;2022-12-18T04:34:29;6.70;;;6.00;;
38609;SDS011;24367;51.640;9.566;2022-12-18T04:36:56;7.00;;;6.35;;
38609;SDS011;24367;51.640;9.566;2022-12-18T04:39:24;6.43;;;5.75;;
38609;SDS011;24367;51.640;9.566;2022-12-18T04:41:53;7.13;;;6.43;;
38609;SDS011;24367;51.640;9.566;2022-12-18T04:44:20;7.05;;;6.35;;
38609;SDS011;24367;51.640;9.566;2022-12-18T04:46:48;6.00;;;5.40;;
38609;SDS011;24367;51.640;9.566;2022-12-18T04:49:14;6.40;;;5.80;;
38609;SDS011;24367;51.640;9.566;2022-12-18T04:51:41;5.68;;;5.18;;
38609;SDS011;24367;51.640;9.566;2022-12-18T04:54:07;6.00;;;5.40;;
38609;SDS011;24367;51.640;9.566;2022-12-18T04:56:34;6.30;;;5.70;;
38609;SDS011;24367;51.640;9.566;2022-12-18T04:59:00;6.22;;;5.63;;
38609;SDS011;24367;51.640;9.566;2022-12-18T05:01:27;5.63;;;5.00;;
38609;SDS011;24367;51.640;9.566;2022-12-18T05:03:55;6.32;;;5.72;;
38609;SDS011;24367;51.640;9.566;2022-12-18T05:06:21;6.93;;;6.22;;
38609;SDS011;24367;51.640;9.566;2022-12-18T05:08:48;6.22;;;5.63;;
38609;SDS011;24367;51.640;9.566;2022-12-18T05:11:14;6.40;;;5.80;;
38609;SDS011;24367;51.640;9.566;2022-12-18T05:13:42;6.22;;;5.63;;
38609;SDS011;24367;51.640;9.566;2022-12-18T05:16:09;6.50;;;5.70;;
38609;SDS011;24367;51.640;9.566;2022-12-18T05:18:36;6.85;;;6.15;;
38609;SDS011;24367;51.640;9.566;2022-12-18T05:21:04;6.13;;;5.53;;
38609;SDS011;24367;51.640;9.566;2022-12-18T05:23:31;6.43;;;5.82;;
38609;SDS011;24367;51.640;9.566;2022-12-18T05:25:58;6.35;;;5.38;;
38609;SDS011;24367;51.640;9.566;2022-12-18T05:28:27;5.95;;;5.35;;
38609;SDS011;24367;51.640;9.566;2022-12-18T05:30:55;5.80;;;5.22;;
38609;SDS011;24367;51.640;9.566;2022-12-18T05:33:23;6.20;;;5.60;;
38609;SDS011;24367;51.640;9.566;2022-12-18T05:35:51;5.78;;;5.18;;
38609;SDS011;24367;51.640;9.566;2022-12-18T05:38:19;6.32;;;5.70;;
38609;SDS011;24367;51.640;9.566;2022-12-18T05:40:47;6.30;;;5.70;;
38609;SDS011;24367;51.640;9.566;2022-12-18T05:43:14;6.75;;;6.10;;
38609;SDS011;24367;51.640;9.566;2022-12-18T05:45:40;6.07;;;5.47;;
38609;SDS011;24367;51.640;9.566;2022-12-18T05:48:07;6.22;;;5.63;;
38609;SDS011;24367;51.640;9.566;2022-12-18T05:50:34;6.60;;;6.00;;
38609;SDS011;24367;51.640;9.566;2022-12-18T05:53:01;6.05;;;5.45;;
38609;SDS011;24367;51.640;9.566;2022-12-18T05:55:32;5.65;;;5.15;;
38609;SDS011;24367;51.640;9.566;2022-12-18T05:57:59;5.63;;;5.10;;
38609;SDS011;24367;51.640;9.566;2022-12-18T06:00:26;5.95;;;5.35;;
38609;SDS011;24367;51.640;9.566;2022-12-18T06:02:52;6.20;;;5.60;;
38609;SDS011;24367;51.640;9.566;2022-12-18T06:05:19;6.25;;;5.47;;
38609;SDS011;24367;51.640;9.566;2022-12-18T06:07:45;5.88;;;5.28;;
38609;SDS011;24367;51.640;9.566;2022-12-18T06:10:12;6.57;;;5.88;;
38609;SDS011;24367;51.640;9.566;2022-12-18T06:12:40;6.03;;;5.43;;
38609;SDS011;24367;51.640;9.566;2022-12-18T06:15:06;6.47;;;5.88;;
38609;SDS011;24367;51.640;9.566;2022-12-18T06:17:34;5.85;;;5.10;;
38609;SDS011;24367;51.640;9.566;2022-12-18T06:20:00;5.57;;;4.97;;
38609;SDS011;24367;51.640;9.566;2022-12-18T06:22:27;5.38;;;4.88;;
38609;SDS011;24367;51.640;9.566;2022-12-18T06:24:54;6.13;;;5.53;;
38609;SDS011;24367;51.640;9.566;2022-12-18T06:27:20;6.47;;;5.80;;
38609;SDS011;24367;51.640;9.566;2022-12-18T06:29:48;6.45;;;5.85;;
38609;SDS011;24367;51.640;9.566;2022-12-18T06:32:14;6.70;;;5.90;;
38609;SDS011;24367;51.640;9.566;2022-12-18T06:34:41;5.82;;;5.18;;
38609;SDS011;24367;51.640;9.566;2022-12-18T06:37:08;6.00;;;5.40;;
38609;SDS011;24367;51.640;9.566;2022-12-18T06:39:34;5.90;;;5.30;;
38609;SDS011;24367;51.640;9.566;2022-12-18T06:42:01;5.25;;;4.75;;
38609;SDS011;24367;51.640;9.566;2022-12-18T06:44:27;6.30;;;5.50;;
38609;SDS011;24367;51.640;9.566;2022-12-18T06:46:55;7.30;;;5.43;;
38609;SDS011;24367;51.640;9.566;2022-12-18T06:49:22;5.95;;;5.35;;
38609;SDS011;24367;51.640;9.566;2022-12-18T06:51:49;5.75;;;5.20;;
38609;SDS011;24367;51.640;9.566;2022-12-18T06:54:15;6.20;;;5.60;;
38609;SDS011;24367;51.640;9.566;2022-12-18T06:56:44;5.85;;;5.25;;
38609;SDS011;24367;51.640;9.566;2022-12-18T06:59:11;6.57;;;5.97;;
38609;SDS011;24367;51.640;9.566;2022-12-18T07:01:38;5.43;;;4.93;;
38609;SDS011;24367;51.640;9.566;2022-12-18T07:04:06;6.10;;;5.50;;
38609;SDS011;24367;51.640;9.566;2022-12-18T07:06:33;6.07;;;5.50;;
38609;SDS011;24367;51.640;9.566;2022-12-18T07:08:59;6.10;;;5.50;;
38609;SDS011;24367;51.640;9.566;2022-12-18T07:11:26;6.22;;;5.60;;
38609;SDS011;24367;51.640;9.566;2022-12-18T07:13:53;6.30;;;5.70;;
38609;SDS011;24367;51.640;9.566;2022-12-18T07:16:20;5.53;;;5.03;;
38609;SDS011;24367;51.640;9.566;2022-12-18T07:18:47;5.93;;;5.32;;
38609;SDS011;24367;51.640;9.566;2022-12-18T07:21:15;5.97;;;5.38;;
38609;SDS011;24367;51.640;9.566;2022-12-18T07:23:43;6.00;;;5.40;;
38609;SDS011;24367;51.640;9.566;2022-12-18T07:26:13;6.35;;;5.70;;
38609;SDS011;24367;51.640;9.566;2022-12-18T07:28:40;6.00;;;5.40;;
38609;SDS011;24367;51.640;9.566;2022-12-18T07:31:08;6.07;;;5.47;;
38609;SDS011;24367;51.640;9.566;2022-12-18T07:33:36;6.03;;;5.43;;
38609;SDS011;24367;51.640;9.566;2022-12-18T07:36:03;6.00;;;5.40;;
38609;SDS011;24367;51.640;9.566;2022-12-18T07:38:33;6.40;;;5.80;;
38609;SDS011;24367;51.640;9.566;2022-12-18T07:41:00;6.30;;;5.70;;
38609;SDS011;24367;51.640;9.566;2022-12-18T07:43:26;5.78;;;5.18;;
38609;SDS011;24367;51.640;9.566;2022-12-18T07:45:53;5.55;;;5.00;;
38609;SDS011;24367;51.640;9.566;2022-12-18T07:48:20;6.00;;;5.40;;
38609;SDS011;24367;51.640;9.566;2022-12-18T07:50:46;5.40;;;4.90;;
38609;SDS011;24367;51.640;9.566;2022-12-18T07:53:13;6.07;;;5.47;;
38609;SDS011;24367;51.640;9.566;2022-12-18T07:55:41;5.75;;;5.05;;
38609;SDS011;24367;51.640;9.566;2022-12-18T07:58:08;5.80;;;5.20;;
38609;SDS011;24367;51.640;9.566;2022-12-18T08:00:34;6.03;;;5.43;;
38609;SDS011;24367;51.640;9.566;2022-12-18T08:03:01;6.00;;;5.50;;
38609;SDS011;24367;51.640;9.566;2022-12-18T08:05:28;5.70;;;5.20;;
38609;SDS011;24367;51.640;9.566;2022-12-18T08:07:54;6.13;;;5.53;;
38609;SDS011;24367;51.640;9.566;2022-12-18T08:10:22;5.93;;;5.15;;
38609;SDS011;24367;51.640;9.566;2022-12-18T08:12:50;5.85;;;5.15;;
38609;SDS011;24367;51.640;9.566;2022-12-18T08:15:17;5.30;;;4.80;;
38609;SDS011;24367;51.640;9.566;2022-12-18T08:17:44;6.88;;;5.20;;
38609;SDS011;24367;51.640;9.566;2022-12-18T08:20:11;9.05;;;5.43;;
38609;SDS011;24367;51.640;9.566;2022-12-18T08:22:39;8.18;;;5.30;;
38609;SDS011;24367;51.640;9.566;2022-12-18T08:25:06;9.48;;;5.40;;
38609;SDS011;24367;51.640;9.566;2022-12-18T08:27:33;7.18;;;4.95;;
38609;SDS011;24367;51.640;9.566;2022-12-18T08:30:01;8.63;;;5.38;;
38609;SDS011;24367;51.640;9.566;2022-12-18T08:32:29;6.60;;;5.18;;
38609;SDS011;24367;51.640;9.566;2022-12-18T08:34:55;7.47;;;5.05;;
38609;SDS011;24367;51.640;9.566;2022-12-18T08:37:22;7.65;;;5.22;;
38609;SDS011;24367;51.640;9.566;2022-12-18T08:39:48;7.80;;;4.90;;
38609;SDS011;24367;51.640;9.566;2022-12-18T08:42:15;6.28;;;5.15;;
38609;SDS011;24367;51.640;9.566;2022-12-18T08:44:59;21.27;;;12.68;;
38609;SDS011;24367;51.640;9.566;2022-12-18T08:47:27;14.20;;;12.75;;
38609;SDS011;24367;51.640;9.566;2022-12-18T08:49:53;14.98;;;12.43;;
38609;SDS011;24367;51.640;9.566;2022-12-18T08:52:20;13.93;;;12.52;;
38609;SDS011;24367;51.640;9.566;2022-12-18T08:54:46;16.73;;;11.85;;
38609;SDS011;24367;51.640;9.566;2022-12-18T08:57:13;12.48;;;10.93;;
38609;SDS011;24367;51.640;9.566;2022-12-18T08:59:40;13.55;;;10.77;;
38609;SDS011;24367;51.640;9.566;2022-12-18T09:02:07;17.58;;;10.25;;
38609;SDS011;24367;51.640;9.566;2022-12-18T09:04:35;10.88;;;9.77;;
38609;SDS011;24367;51.640;9.566;2022-12-18T09:07:02;14.93;;;8.98;;
38609;SDS011;24367;51.640;9.566;2022-12-18T09:09:29;10.05;;;8.77;;
38609;SDS011;24367;51.640;9.566;2022-12-18T09:11:55;13.98;;;9.48;;
38609;SDS011;24367;51.640;9.566;2022-12-18T09:14:22;10.15;;;8.18;;
38609;SDS011;24367;51.640;9.566;2022-12-18T09:16:48;8.18;;;7.32;;
38609;SDS011;24367;51.640;9.566;2022-12-18T09:19:15;9.50;;;7.78;;
38609;SDS011;24367;51.640;9.566;2022-12-18T09:21:42;9.23;;;8.32;;
38609;SDS011;24367;51.640;9.566;2022-12-18T09:24:10;9.27;;;7.90;;
38609;SDS011;24367;51.640;9.566;2022-12-18T09:26:38;9.00;;;8.10;;
38609;SDS011;24367;51.640;9.566;2022-12-18T09:29:04;12.43;;;7.75;;
38609;SDS011;24367;51.640;9.566;2022-12-18T09:31:32;8.52;;;6.88;;
38609;SDS011;24367;51.640;9.566;2022-12-18T09:33:59;9.88;;;7.45;;
38609;SDS011;24367;51.640;9.566;2022-12-18T09:36:26;16.20;;;7.05;;
38609;SDS011;24367;51.640;9.566;2022-12-18T09:38:53;40.35;;;13.63;;
38609;SDS011;24367;51.640;9.566;2022-12-18T09:41:32;37.08;;;10.95;;
38609;SDS011;24367;51.640;9.566;2022-12-18T09:44:04;34.22;;;9.98;;
38609;SDS011;24367;51.640;9.566;2022-12-18T09:46:36;23.88;;;8.88;;
38609;SDS011;24367;51.640;9.566;2022-12-18T09:49:05;20.95;;;8.93;;
38609;SDS011;24367;51.640;9.566;2022-12-18T09:51:35;18.77;;;8.25;;
38609;SDS011;24367;51.640;9.566;2022-12-18T09:54:11;15.40;;;7.78;;
38609;SDS011;24367;51.640;9.566;2022-12-18T09:56:41;16.23;;;7.80;;
38609;SDS011;24367;51.640;9.566;2022-12-18T09:59:16;12.50;;;7.78;;
38609;SDS011;24367;51.640;9.566;2022-12-18T10:01:45;14.10;;;7.45;;
38609;SDS011;24367;51.640;9.566;2022-12-18T10:04:12;14.45;;;7.35;;
38609;SDS011;24367;51.640;9.566;2022-12-18T10:06:39;15.52;;;7.75;;
38609;SDS011;24367;51.640;9.566;2022-12-18T10:09:13;14.40;;;7.57;;
38609;SDS011;24367;51.640;9.566;2022-12-18T10:11:47;14.10;;;7.47;;
38609;SDS011;24367;51.640;9.566;2022-12-18T10:14:19;13.65;;;7.05;;
38609;SDS011;24367;51.640;9.566;2022-12-18T10:16:53;15.65;;;7.40;;
38609;SDS011;24367;51.640;9.566;2022-12-18T10:19:30;22.00;;;8.07;;
38609;SDS011;24367;51.640;9.566;2022-12-18T10:22:03;27.75;;;7.13;;
38609;SDS011;24367;51.640;9.566;2022-12-18T10:24:39;15.82;;;6.65;;
38609;SDS011;24367;51.640;9.566;2022-12-18T10:27:11;13.50;;;6.32;;
38609;SDS011;24367;51.640;9.566;2022-12-18T10:29:40;14.65;;;6.88;;
38609;SDS011;24367;51.640;9.566;2022-12-18T10:32:08;12.48;;;6.65;;
38609;SDS011;24367;51.640;9.566;2022-12-18T10:34:39;13.95;;;6.90;;
38609;SDS011;24367;51.640;9.566;2022-12-18T10:37:06;10.10;;;6.22;;
38609;SDS011;24367;51.640;9.566;2022-12-18T10:39:40;13.43;;;6.70;;
38609;SDS011;24367;51.640;9.566;2022-12-18T10:42:09;8.23;;;6.40;;
38609;SDS011;24367;51.640;9.566;2022-12-18T10:44:38;12.77;;;6.70;;
38609;SDS011;24367;51.640;9.566;2022-12-18T10:47:06;15.93;;;6.68;;
38609;SDS011;24367;51.640;9.566;2022-12-18T10:49:37;9.20;;;6.13;;
38609;SDS011;24367;51.640;9.566;2022-12-18T10:52:17;15.63;;;7.20;;
38609;SDS011;24367;51.640;9.566;2022-12-18T10:54:50;14.63;;;6.95;;
38609;SDS011;24367;51.640;9.566;2022-12-18T10:57:29;11.43;;;6.32;;
38609;SDS011;24367;51.640;9.566;2022-12-18T10:59:58;11.32;;;6.93;;
38609;SDS011;24367;51.640;9.566;2022-12-18T11:02:26;11.50;;;7.72;;
38609;SDS011;24367;51.640;9.566;2022-12-18T11:04:54;11.35;;;7.13;;
38609;SDS011;24367;51.640;9.566;2022-12-18T11:07:21;14.45;;;8.05;;
38609;SDS011;24367;51.640;9.566;2022-12-18T11:10:00;10.85;;;7.00;;
38609;SDS011;24367;51.640;9.566;2022-12-18T11:12:27;12.32;;;6.63;;
38609;SDS011;24367;51.640;9.566;2022-12-18T11:14:55;12.93;;;6.93;;
38609;SDS011;24367;51.640;9.566;2022-12-18T11:17:25;11.63;;;6.47;;
38609;SDS011;24367;51.640;9.566;2022-12-18T11:19:57;13.75;;;6.53;;
38609;SDS011;24367;51.640;9.566;2022-12-18T11:22:24;9.65;;;6.88;;
38609;SDS011;24367;51.640;9.566;2022-12-18T11:24:55;8.00;;;6.28;;
38609;SDS011;24367;51.640;9.566;2022-12-18T11:27:23;13.93;;;6.78;;
38609;SDS011;24367;51.640;9.566;2022-12-18T11:29:50;10.15;;;6.40;;
38609;SDS011;24367;51.640;9.566;2022-12-18T11:32:25;11.07;;;6.57;;
38609;SDS011;24367;51.640;9.566;2022-12-18T11:34:57;12.35;;;6.63;;
38609;SDS011;24367;51.640;9.566;2022-12-18T11:37:27;11.45;;;6.07;;
38609;SDS011;24367;51.640;9.566;2022-12-18T11:39:56;6.95;;;6.07;;
38609;SDS011;24367;51.640;9.566;2022-12-18T11:42:27;8.65;;;6.50;;
38609;SDS011;24367;51.640;9.566;2022-12-18T11:44:59;8.57;;;6.57;;
38609;SDS011;24367;51.640;9.566;2022-12-18T11:47:29;10.55;;;6.00;;
38609;SDS011;24367;51.640;9.566;2022-12-18T11:50:00;9.10;;;5.70;;
38609;SDS011;24367;51.640;9.566;2022-12-18T11:52:30;10.55;;;6.70;;
38609;SDS011;24367;51.640;9.566;2022-12-18T11:55:04;11.88;;;6.32;;
38609;SDS011;24367;51.640;9.566;2022-12-18T11:57:39;8.02;;;5.57;;
38609;SDS011;24367;51.640;9.566;2022-12-18T12:00:11;8.85;;;6.53;;
38609;SDS011;24367;51.640;9.566;2022-12-18T12:02:48;9.25;;;6.00;;
38609;SDS011;24367;51.640;9.566;2022-12-18T12:05:39;11.48;;;6.20;;
38609;SDS011;24367;51.640;9.566;2022-12-18T12:08:11;8.30;;;6.13;;
38609;SDS011;24367;51.640;9.566;2022-12-18T12:10:46;11.20;;;6.53;;
38609;SDS011;24367;51.640;9.566;2022-12-18T12:13:21;19.90;;;7.55;;
38609;SDS011;24367;51.640;9.566;2022-12-18T12:15:55;16.08;;;6.65;;
38609;SDS011;24367;51.640;9.566;2022-12-18T12:18:28;17.25;;;6.97;;
38609;SDS011;24367;51.640;9.566;2022-12-18T12:21:01;17.40;;;5.97;;
38609;SDS011;24367;51.640;9.566;2022-12-18T12:23:33;12.82;;;6.15;;
38609;SDS011;24367;51.640;9.566;2022-12-18T12:26:06;13.35;;;6.75;;
38609;SDS011;24367;51.640;9.566;2022-12-18T12:28:43;19.50;;;6.75;;
38609;SDS011;24367;51.640;9.566;2022-12-18T12:31:19;11.23;;;6.25;;
38609;SDS011;24367;51.640;9.566;2022-12-18T12:33:51;12.45;;;6.45;;
38609;SDS011;24367;51.640;9.566;2022-12-18T12:36:27;14.63;;;6.22;;
38609;SDS011;24367;51.640;9.566;2022-12-18T12:38:59;12.05;;;6.25;;
38609;SDS011;24367;51.640;9.566;2022-12-18T12:41:30;12.80;;;6.53;;
38609;SDS011;24367;51.640;9.566;2022-12-18T12:44:16;10.35;;;6.43;;
38609;SDS011;24367;51.640;9.566;2022-12-18T12:46:45;8.60;;;5.90;;
38609;SDS011;24367;51.640;9.566;2022-12-18T12:49:14;11.80;;;6.82;;
38609;SDS011;24367;51.640;9.566;2022-12-18T12:51:43;9.32;;;5.90;;
38609;SDS011;24367;51.640;9.566;2022-12-18T12:54:11;10.02;;;6.72;;
38609;SDS011;24367;51.640;9.566;2022-12-18T12:56:43;9.15;;;6.20;;
38609;SDS011;24367;51.640;9.566;2022-12-18T12:59:13;12.05;;;6.97;;
38609;SDS011;24367;51.640;9.566;2022-12-18T13:01:49;9.60;;;6.53;;
38609;SDS011;24367;51.640;9.566;2022-12-18T13:04:21;8.38;;;5.85;;
38609;SDS011;24367;51.640;9.566;2022-12-18T13:06:53;11.60;;;6.57;;
38609;SDS011;24367;51.640;9.566;2022-12-18T13:09:22;8.80;;;5.97;;
38609;SDS011;24367;51.640;9.566;2022-12-18T13:11:50;10.65;;;6.40;;
38609;SDS011;24367;51.640;9.566;2022-12-18T13:14:35;9.23;;;5.68;;
38609;SDS011;24367;51.640;9.566;2022-12-18T13:22:43;7.35;;;5.45;;
38609;SDS011;24367;51.640;9.566;2022-12-18T13:25:28;11.63;;;5.75;;
38609;SDS011;24367;51.640;9.566;2022-12-18T13:28:07;10.52;;;6.32;;
38609;SDS011;24367;51.640;9.566;2022-12-18T13:30:49;7.63;;;5.80;;
38609;SDS011;24367;51.640;9.566;2022-12-18T13:36:26;5.80;;;5.05;;
38609;SDS011;24367;51.640;9.566;2022-12-18T13:39:20;6.35;;;5.47;;
38609;SDS011;24367;51.640;9.566;2022-12-18T13:41:51;7.50;;;6.15;;
38609;SDS011;24367;51.640;9.566;2022-12-18T13:44:26;9.82;;;5.68;;
38609;SDS011;24367;51.640;9.566;2022-12-18T13:46:57;8.27;;;5.55;;
38609;SDS011;24367;51.640;9.566;2022-12-18T13:49:25;6.82;;;6.00;;
38609;SDS011;24367;51.640;9.566;2022-12-18T13:51:54;10.10;;;6.25;;
38609;SDS011;24367;51.640;9.566;2022-12-18T13:54:22;12.85;;;5.40;;
38609;SDS011;24367;51.640;9.566;2022-12-18T13:56:51;6.47;;;5.22;;
38609;SDS011;24367;51.640;9.566;2022-12-18T13:59:19;8.38;;;5.32;;
38609;SDS011;24367;51.640;9.566;2022-12-18T14:01:50;8.57;;;5.93;;
38609;SDS011;24367;51.640;9.566;2022-12-18T14:04:20;8.82;;;5.32;;
38609;SDS011;24367;51.640;9.566;2022-12-18T14:06:49;6.75;;;5.30;;
38609;SDS011;24367;51.640;9.566;2022-12-18T14:09:18;6.97;;;5.35;;
38609;SDS011;24367;51.640;9.566;2022-12-18T14:11:47;7.32;;;5.10;;
38609;SDS011;24367;51.640;9.566;2022-12-18T14:14:15;8.07;;;5.38;;
38609;SDS011;24367;51.640;9.566;2022-12-18T14:16:42;12.52;;;5.35;;
38609;SDS011;24367;51.640;9.566;2022-12-18T14:19:11;9.15;;;5.65;;
38609;SDS011;24367;51.640;9.566;2022-12-18T14:21:40;6.25;;;4.97;;
38609;SDS011;24367;51.640;9.566;2022-12-18T14:24:12;6.68;;;5.18;;
38609;SDS011;24367;51.640;9.566;2022-12-18T14:26:40;6.55;;;4.93;;
38609;SDS011;24367;51.640;9.566;2022-12-18T14:29:18;6.18;;;5.10;;
38609;SDS011;24367;51.640;9.566;2022-12-18T14:34:37;7.15;;;5.32;;
38609;SDS011;24367;51.640;9.566;2022-12-18T14:37:04;13.40;;;5.75;;
38609;SDS011;24367;51.640;9.566;2022-12-18T14:39:32;8.10;;;5.15;;
38609;SDS011;24367;51.640;9.566;2022-12-18T14:41:58;13.48;;;5.80;;
38609;SDS011;24367;51.640;9.566;2022-12-18T14:44:25;8.52;;;5.40;;
38609;SDS011;24367;51.640;9.566;2022-12-18T14:46:51;10.57;;;5.90;;
38609;SDS011;24367;51.640;9.566;2022-12-18T14:49:19;7.88;;;5.00;;
38609;SDS011;24367;51.640;9.566;2022-12-18T14:51:52;11.30;;;5.18;;
38609;SDS011;24367;51.640;9.566;2022-12-18T14:54:20;7.65;;;5.70;;
38609;SDS011;24367;51.640;9.566;2022-12-18T14:56:47;9.50;;;5.43;;
38609;SDS011;24367;51.640;9.566;2022-12-18T14:59:16;5.72;;;5.05;;
38609;SDS011;24367;51.640;9.566;2022-12-18T15:01:45;14.95;;;6.25;;
38609;SDS011;24367;51.640;9.566;2022-12-18T15:04:23;9.63;;;5.90;;
38609;SDS011;24367;51.640;9.566;2022-12-18T15:07:03;9.90;;;4.93;;
38609;SDS011;24367;51.640;9.566;2022-12-18T15:09:32;9.02;;;5.32;;